createdAt,value
2018-05-08T00:00:43.834Z,5.63
2018-05-08T00:03:11.839Z,5.80
2018-05-08T00:05:39.811Z,5.50
2018-05-08T00:08:07.860Z,6.97
2018-05-08T00:10:35.830Z,6.63
2018-05-08T00:13:03.770Z,5.83
2018-05-08T00:15:31.754Z,7.00
2018-05-08T00:17:59.733Z,6.10
2018-05-08T00:20:27.746Z,7.43
2018-05-08T00:22:55.768Z,6.90
2018-05-08T00:25:23.863Z,6.37
2018-05-08T00:27:51.845Z,5.40
2018-05-08T00:30:19.806Z,7.30
2018-05-08T00:32:47.841Z,6.60
2018-05-08T00:35:15.885Z,6.60
2018-05-08T00:37:43.929Z,7.67
2018-05-08T00:40:11.946Z,6.40
2018-05-08T00:42:40.207Z,6.90
2018-05-08T00:45:08.168Z,7.33
2018-05-08T00:47:36.166Z,7.00
2018-05-08T00:50:04.245Z,7.40
2018-05-08T00:52:32.240Z,7.07
2018-05-08T00:55:05.239Z,6.93
2018-05-08T00:57:33.314Z,6.43
2018-05-08T01:00:01.367Z,7.87
2018-05-08T01:02:29.537Z,6.60
2018-05-08T01:04:57.775Z,6.47
2018-05-08T01:07:26.224Z,8.10
2018-05-08T01:09:54.808Z,7.10
2018-05-08T01:12:23.325Z,6.90
2018-05-08T01:14:51.663Z,6.70
2018-05-08T01:17:20.235Z,7.53
2018-05-08T01:19:48.392Z,8.37
2018-05-08T01:22:16.314Z,6.83
2018-05-08T01:24:44.338Z,6.23
2018-05-08T01:27:12.417Z,8.10
2018-05-08T01:29:40.398Z,5.90
2018-05-08T01:32:08.794Z,6.10
2018-05-08T01:34:37.358Z,6.80
2018-05-08T01:37:05.802Z,5.90
2018-05-08T01:39:34.430Z,7.03
2018-05-08T01:42:03.338Z,6.60
2018-05-08T01:44:32.421Z,6.10
2018-05-08T01:47:00.905Z,6.60
2018-05-08T01:49:29.470Z,7.50
2018-05-08T01:51:57.833Z,6.63
2018-05-08T01:54:26.331Z,6.80
2018-05-08T01:56:54.708Z,6.70
2018-05-08T01:59:23.289Z,6.23
2018-05-08T02:01:52.061Z,6.07
2018-05-08T02:04:20.758Z,5.50
2018-05-08T02:06:49.158Z,7.70
2018-05-08T02:09:17.713Z,7.60
2018-05-08T02:11:46.502Z,6.77
2018-05-08T02:14:15.100Z,6.20
2018-05-08T02:16:43.819Z,6.23
2018-05-08T02:19:12.463Z,6.33
2018-05-08T02:21:41.049Z,5.80
2018-05-08T02:24:09.324Z,6.23
2018-05-08T02:26:37.908Z,7.87
2018-05-08T02:29:06.592Z,5.83
2018-05-08T02:31:35.215Z,5.30
2018-05-08T02:34:03.771Z,6.47
2018-05-08T02:36:32.346Z,6.70
2018-05-08T02:39:00.687Z,6.73
2018-05-08T02:41:29.321Z,6.93
2018-05-08T02:43:58.080Z,6.80
2018-05-08T02:46:26.771Z,7.27
2018-05-08T02:48:55.150Z,8.70
2018-05-08T02:51:23.842Z,7.90
2018-05-08T02:53:52.718Z,6.20
2018-05-08T02:56:21.609Z,6.47
2018-05-08T02:58:50.503Z,7.90
2018-05-08T03:01:19.390Z,7.50
2018-05-08T03:03:47.665Z,7.00
2018-05-08T03:06:16.438Z,6.90
2018-05-08T03:08:45.242Z,6.77
2018-05-08T03:11:13.912Z,7.47
2018-05-08T03:13:42.423Z,8.87
2018-05-08T03:16:10.880Z,7.93
2018-05-08T03:18:39.675Z,7.13
2018-05-08T03:21:07.877Z,6.53
2018-05-08T03:23:36.223Z,6.57
2018-05-08T03:26:04.224Z,5.93
2018-05-08T03:28:32.261Z,5.97
2018-05-08T03:31:00.261Z,6.33
2018-05-08T03:33:28.307Z,5.63
2018-05-08T03:35:56.295Z,7.17
2018-05-08T03:38:24.365Z,6.60
2018-05-08T03:40:52.325Z,7.17
2018-05-08T03:43:20.346Z,6.80
2018-05-08T03:45:48.354Z,7.57
2018-05-08T03:48:16.861Z,6.73
2018-05-08T03:50:44.878Z,7.30
2018-05-08T03:53:12.845Z,7.20
2018-05-08T03:55:40.848Z,6.03
2018-05-08T03:58:08.793Z,5.87
2018-05-08T04:00:48.462Z,7.10
2018-05-08T04:03:28.467Z,6.53
2018-05-08T04:05:59.291Z,5.60
2018-05-08T04:08:31.937Z,5.40
2018-05-08T04:10:59.909Z,5.13
2018-05-08T04:13:27.890Z,5.00
2018-05-08T04:15:55.882Z,6.60
2018-05-08T04:18:25.936Z,5.87
2018-05-08T04:20:53.930Z,7.80
2018-05-08T04:23:21.976Z,7.33
2018-05-08T04:25:49.923Z,6.40
2018-05-08T04:28:17.949Z,6.83
2018-05-08T04:30:45.940Z,6.63
2018-05-08T04:33:13.929Z,6.80
2018-05-08T04:35:41.890Z,7.13
2018-05-08T04:38:09.964Z,7.03
2018-05-08T04:40:37.985Z,6.20
2018-05-08T04:43:06.045Z,5.63
2018-05-08T04:45:34.084Z,7.40
2018-05-08T04:48:02.026Z,6.97
2018-05-08T04:50:30.277Z,6.60
2018-05-08T04:52:58.285Z,5.47
2018-05-08T04:55:26.290Z,6.90
2018-05-08T04:57:54.427Z,6.53
2018-05-08T05:00:22.351Z,6.27
2018-05-08T05:02:50.440Z,5.97
2018-05-08T05:05:18.466Z,5.90
2018-05-08T05:07:46.498Z,6.40
2018-05-08T05:10:14.529Z,6.00
2018-05-08T05:12:42.590Z,6.40
2018-05-08T05:15:10.601Z,5.57
2018-05-08T05:17:39.083Z,4.90
2018-05-08T05:20:08.069Z,5.90
2018-05-08T05:22:36.129Z,6.30
2018-05-08T05:25:04.129Z,5.20
2018-05-08T05:27:32.156Z,7.07
2018-05-08T05:30:00.117Z,5.80
2018-05-08T05:32:29.021Z,5.50
2018-05-08T05:34:57.062Z,5.67
2018-05-08T05:37:25.096Z,5.73
2018-05-08T05:39:53.147Z,7.93
2018-05-08T05:42:21.249Z,7.37
2018-05-08T05:44:49.284Z,6.87
2018-05-08T05:47:17.390Z,5.20
2018-05-08T05:49:45.455Z,6.23
2018-05-08T05:52:14.742Z,5.80
2018-05-08T05:54:42.833Z,5.87
2018-05-08T05:57:26.979Z,4.60
2018-05-08T05:59:55.116Z,4.87
2018-05-08T06:02:23.330Z,5.93
2018-05-08T06:04:51.378Z,5.00
2018-05-08T06:07:19.379Z,5.13
2018-05-08T06:09:47.369Z,7.20
2018-05-08T06:12:15.419Z,6.60
2018-05-08T06:14:43.468Z,6.03
2018-05-08T06:17:11.478Z,7.07
2018-05-08T06:19:39.495Z,5.53
2018-05-08T06:22:07.600Z,4.90
2018-05-08T06:24:35.708Z,6.13
2018-05-08T06:27:03.719Z,5.60
2018-05-08T06:29:31.836Z,5.40
2018-05-08T06:31:59.858Z,5.80
2018-05-08T06:34:27.887Z,6.73
2018-05-08T06:36:55.932Z,7.00
2018-05-08T06:39:23.940Z,6.43
2018-05-08T06:41:51.994Z,5.70
2018-05-08T06:44:20.101Z,5.93
2018-05-08T06:46:48.215Z,6.57
2018-05-08T06:49:16.290Z,5.50
2018-05-08T06:51:44.341Z,5.27
2018-05-08T06:54:12.760Z,6.27
2018-05-08T06:56:41.275Z,4.90
2018-05-08T06:59:09.323Z,5.77
2018-05-08T07:01:37.646Z,4.93
2018-05-08T07:04:05.697Z,5.37
2018-05-08T07:06:33.722Z,5.60
2018-05-08T07:09:01.805Z,5.30
2018-05-08T07:11:29.863Z,5.53
2018-05-08T07:13:57.842Z,5.90
2018-05-08T07:16:25.835Z,5.03
2018-05-08T07:18:53.842Z,5.03
2018-05-08T07:21:21.828Z,5.10
2018-05-08T07:23:49.864Z,6.13
2018-05-08T07:26:17.891Z,5.03
2018-05-08T07:28:45.915Z,5.53
2018-05-08T07:31:13.989Z,5.30
2018-05-08T07:33:42.089Z,5.10
2018-05-08T07:36:10.099Z,5.47
2018-05-08T07:38:38.102Z,5.90
2018-05-08T07:41:06.145Z,5.60
2018-05-08T07:43:34.211Z,4.73
2018-05-08T07:46:02.233Z,5.17
2018-05-08T07:48:30.197Z,5.97
2018-05-08T07:50:58.191Z,4.60
2018-05-08T07:53:26.193Z,5.70
2018-05-08T07:55:54.637Z,5.30
2018-05-08T07:58:22.635Z,4.27
2018-05-08T08:00:50.699Z,5.90
2018-05-08T08:03:18.778Z,4.80
2018-05-08T08:05:46.783Z,4.53
2018-05-08T08:08:14.817Z,6.23
2018-05-08T08:10:42.847Z,4.00
2018-05-08T08:13:10.879Z,4.27
2018-05-08T08:15:38.862Z,3.90
2018-05-08T08:18:06.837Z,3.67
2018-05-08T08:20:34.805Z,3.40
2018-05-08T08:23:02.862Z,3.57
2018-05-08T08:25:30.990Z,4.17
2018-05-08T08:27:59.081Z,4.20
2018-05-08T08:30:27.090Z,4.03
2018-05-08T08:32:55.058Z,3.50
2018-05-08T08:35:23.131Z,3.77
2018-05-08T08:37:51.150Z,4.60
2018-05-08T08:40:19.498Z,3.23
2018-05-08T08:42:47.655Z,3.10
2018-05-08T08:45:15.705Z,3.87
2018-05-08T08:47:43.774Z,4.50
2018-05-08T08:50:11.723Z,2.53
2018-05-08T08:52:39.751Z,2.90
2018-05-08T08:55:07.751Z,3.13
2018-05-08T08:57:36.041Z,2.50
2018-05-08T09:00:04.146Z,3.70
2018-05-08T09:02:32.164Z,4.90
2018-05-08T09:05:00.231Z,3.50
2018-05-08T09:07:28.244Z,3.50
2018-05-08T09:09:56.338Z,3.30
2018-05-08T09:12:24.339Z,3.97
2018-05-08T09:14:52.474Z,4.17
2018-05-08T09:17:20.631Z,3.47
2018-05-08T09:19:48.775Z,3.03
2018-05-08T09:22:16.859Z,3.30
2018-05-08T09:24:44.847Z,2.87
2018-05-08T09:27:12.870Z,3.03
2018-05-08T09:29:40.835Z,4.03
2018-05-08T09:32:08.834Z,2.87
2018-05-08T09:34:36.811Z,3.50
2018-05-08T09:37:04.866Z,4.97
2018-05-08T09:39:32.887Z,3.33
2018-05-08T09:42:00.878Z,3.97
2018-05-08T09:44:28.874Z,3.70
2018-05-08T09:46:56.881Z,3.00
2018-05-08T09:49:24.894Z,3.10
2018-05-08T09:51:53.018Z,3.30
2018-05-08T09:54:21.015Z,3.93
2018-05-08T09:56:49.034Z,3.63
2018-05-08T09:59:17.755Z,3.50
2018-05-08T10:01:45.848Z,3.30
2018-05-08T10:04:14.084Z,3.90
2018-05-08T10:06:42.161Z,3.50
2018-05-08T10:09:10.238Z,3.50
2018-05-08T10:11:38.262Z,3.53
2018-05-08T10:14:06.325Z,3.90
2018-05-08T10:16:34.487Z,2.57
2018-05-08T10:19:02.570Z,2.70
2018-05-08T10:21:30.659Z,2.90
2018-05-08T10:23:58.673Z,2.03
2018-05-08T10:26:26.669Z,2.90
2018-05-08T10:28:54.669Z,3.17
2018-05-08T10:31:23.066Z,3.40
2018-05-08T10:33:51.086Z,3.37
2018-05-08T10:36:19.094Z,2.97
2018-05-08T10:38:47.237Z,3.13
2018-05-08T10:41:15.278Z,2.90
2018-05-08T10:43:43.200Z,3.63
2018-05-08T10:46:11.187Z,2.60
2018-05-08T10:48:39.271Z,3.43
2018-05-08T10:51:07.555Z,2.70
2018-05-08T10:53:35.544Z,2.33
2018-05-08T10:56:04.078Z,2.23
2018-05-08T10:58:32.133Z,2.20
2018-05-08T11:44:41.565Z,3.30
2018-05-08T11:47:09.592Z,3.50
2018-05-08T11:49:37.784Z,4.13
2018-05-08T11:52:05.710Z,3.43
2018-05-08T11:54:33.713Z,4.20
2018-05-08T11:57:01.749Z,4.30
2018-05-08T11:59:29.803Z,3.80
2018-05-08T12:01:58.206Z,4.47
2018-05-08T12:04:26.485Z,3.90
2018-05-08T12:06:55.273Z,4.43
2018-05-08T12:09:23.334Z,5.87
2018-05-08T12:11:51.350Z,5.30
2018-05-08T12:14:19.347Z,4.90
2018-05-08T12:16:47.293Z,5.53
2018-05-08T12:19:15.251Z,4.80
2018-05-08T12:21:43.316Z,4.60
2018-05-08T12:24:11.305Z,5.77
2018-05-08T12:26:39.426Z,5.43
2018-05-08T12:29:07.527Z,5.27
2018-05-08T12:31:35.432Z,4.90
2018-05-08T12:34:03.425Z,4.30
2018-05-08T12:36:31.455Z,6.67
2018-05-08T12:38:59.480Z,5.10
2018-05-08T12:41:27.641Z,4.60
2018-05-08T12:43:55.686Z,4.50
2018-05-08T12:46:23.650Z,4.97
2018-05-08T12:48:51.698Z,4.67
2018-05-08T12:51:19.698Z,4.47
2018-05-08T12:53:47.765Z,4.43
2018-05-08T12:56:15.852Z,3.03
2018-05-08T12:58:43.853Z,5.17
2018-05-08T13:01:11.858Z,4.17
2018-05-08T13:03:40.375Z,3.80
2018-05-08T13:06:08.434Z,2.33
2018-05-08T13:08:36.457Z,2.40
2018-05-08T13:11:04.547Z,3.20
2018-05-08T13:13:32.539Z,3.27
2018-05-08T13:16:00.561Z,3.40
2018-05-08T13:18:28.577Z,3.40
2018-05-08T13:20:56.599Z,3.20
2018-05-08T13:23:24.587Z,2.97
2018-05-08T13:25:52.565Z,2.37
2018-05-08T13:28:20.554Z,2.97
2018-05-08T13:30:48.627Z,3.30
2018-05-08T13:33:16.795Z,5.70
2018-05-08T13:35:44.738Z,2.73
2018-05-08T13:38:12.781Z,4.23
2018-05-08T13:40:40.826Z,2.97
2018-05-08T13:43:08.898Z,3.70
2018-05-08T13:45:37.330Z,6.03
2018-05-08T13:48:05.962Z,5.03
2018-05-08T13:50:34.470Z,8.17
2018-05-08T13:53:02.507Z,4.20
2018-05-08T13:55:30.532Z,4.50
2018-05-08T13:57:58.557Z,4.70
2018-05-08T14:00:26.530Z,3.57
2018-05-08T14:02:54.536Z,3.40
2018-05-08T14:05:22.716Z,4.47
2018-05-08T14:07:50.696Z,4.47
2018-05-08T14:10:18.736Z,6.10
2018-05-08T14:12:46.810Z,5.10
2018-05-08T14:15:14.793Z,3.77
2018-05-08T14:17:42.788Z,7.13
2018-05-08T14:20:10.863Z,6.17
2018-05-08T14:22:38.927Z,6.13
2018-05-08T14:25:06.983Z,7.37
2018-05-08T14:27:34.926Z,4.77
2018-05-08T14:30:02.887Z,4.40
2018-05-08T14:32:30.911Z,4.47
2018-05-08T14:34:59.094Z,3.50
2018-05-08T14:37:27.163Z,3.03
2018-05-08T14:39:55.238Z,3.27
2018-05-08T14:42:23.346Z,3.73
2018-05-08T14:44:51.356Z,3.53
2018-05-08T14:47:19.331Z,4.23
2018-05-08T14:49:47.386Z,3.13
2018-05-08T14:52:15.433Z,4.87
2018-05-08T14:54:43.444Z,4.47
2018-05-08T14:57:11.426Z,4.80
2018-05-08T14:59:39.465Z,4.40
2018-05-08T15:02:07.479Z,4.73
2018-05-08T15:04:35.428Z,3.23
2018-05-08T15:07:03.772Z,3.90
2018-05-08T15:09:31.786Z,5.17
2018-05-08T15:11:59.750Z,4.40
2018-05-08T15:14:27.820Z,4.93
2018-05-08T15:16:55.740Z,6.00
2018-05-08T15:19:23.783Z,6.93
2018-05-08T15:21:51.842Z,5.37
2018-05-08T15:24:19.947Z,4.43
2018-05-08T15:26:47.972Z,4.40
2018-05-08T15:29:15.983Z,4.20
2018-05-08T15:31:44.035Z,4.27
2018-05-08T15:34:12.005Z,4.10
2018-05-08T15:36:39.946Z,3.37
2018-05-08T15:39:07.950Z,4.50
2018-05-08T15:41:35.987Z,3.53
2018-05-08T15:44:04.043Z,3.93
2018-05-08T15:46:32.058Z,3.70
2018-05-08T15:49:00.058Z,4.30
2018-05-08T15:51:28.264Z,3.47
2018-05-08T15:53:56.278Z,4.10
2018-05-08T15:56:24.300Z,4.40
2018-05-08T15:58:52.285Z,4.03
2018-05-08T16:01:20.320Z,4.47
2018-05-08T16:03:48.310Z,3.90
2018-05-08T16:06:16.410Z,4.87
2018-05-08T16:08:44.831Z,3.73
2018-05-08T16:11:12.827Z,4.33
2018-05-08T16:13:40.815Z,4.67
2018-05-08T16:16:08.798Z,3.93
2018-05-08T16:18:36.814Z,4.30
2018-05-08T16:21:04.813Z,4.13
2018-05-08T16:23:32.808Z,3.20
2018-05-08T16:26:00.785Z,3.60
2018-05-08T16:28:28.817Z,4.40
2018-05-08T16:30:56.806Z,3.83
2018-05-08T16:33:24.826Z,3.77
2018-05-08T16:35:52.820Z,3.43
2018-05-08T16:38:21.671Z,4.00
2018-05-08T16:40:49.725Z,4.60
2018-05-08T16:43:17.811Z,5.20
2018-05-08T16:45:45.828Z,4.47
2018-05-08T16:48:13.905Z,4.20
2018-05-08T16:50:41.997Z,5.47
2018-05-08T16:53:10.114Z,4.23
2018-05-08T16:55:38.140Z,4.23
2018-05-08T16:58:06.168Z,4.00
2018-05-08T17:00:34.175Z,4.43
2018-05-08T17:03:02.184Z,4.60
2018-05-08T17:05:30.071Z,5.00
2018-05-08T17:07:58.132Z,5.43
2018-05-08T17:10:26.482Z,4.97
2018-05-08T17:12:54.506Z,5.00
2018-05-08T17:15:22.523Z,4.87
2018-05-08T17:17:50.560Z,6.90
2018-05-08T17:20:18.590Z,7.80
2018-05-08T17:22:46.593Z,7.13
2018-05-08T17:25:14.535Z,5.73
2018-05-08T17:27:42.494Z,5.60
2018-05-08T17:30:10.472Z,7.37
2018-05-08T17:32:38.607Z,8.87
2018-05-08T17:35:06.759Z,9.60
2018-05-08T17:37:34.846Z,6.67
2018-05-08T17:40:02.876Z,7.47
2018-05-08T17:42:30.901Z,16.97
2018-05-08T17:44:58.918Z,15.33
2018-05-08T17:47:26.979Z,13.53
2018-05-08T17:49:56.120Z,15.10
2018-05-08T17:52:24.164Z,11.80
2018-05-08T17:54:52.181Z,9.33
2018-05-08T17:57:20.105Z,6.10
2018-05-08T17:59:48.062Z,7.20
2018-05-08T18:02:16.105Z,5.90
2018-05-08T18:04:44.109Z,5.70
2018-05-08T18:07:12.118Z,5.77
2018-05-08T18:09:40.787Z,4.70
2018-05-08T18:12:09.668Z,5.07
2018-05-08T18:14:38.359Z,5.63
2018-05-08T18:17:06.877Z,5.90
2018-05-08T18:19:35.210Z,5.70
2018-05-08T18:22:03.883Z,4.93
2018-05-08T18:24:32.670Z,5.20
2018-05-08T18:27:01.044Z,4.47
2018-05-08T18:29:29.640Z,5.47
2018-05-08T18:31:58.213Z,6.87
2018-05-08T18:34:26.897Z,5.40
2018-05-08T18:36:54.928Z,5.80
2018-05-08T18:39:22.946Z,6.03
2018-05-08T18:41:50.934Z,5.47
2018-05-08T18:44:18.854Z,5.37
2018-05-08T18:46:46.814Z,5.83
2018-05-08T18:49:15.048Z,6.10
2018-05-08T18:51:43.697Z,6.13
2018-05-08T18:54:12.294Z,4.83
2018-05-08T18:56:40.861Z,4.90
2018-05-08T18:59:09.454Z,5.70
2018-05-08T19:01:37.845Z,5.73
2018-05-08T19:04:06.306Z,5.07
2018-05-08T19:06:34.790Z,5.57
2018-05-08T19:09:03.307Z,7.70
2018-05-08T19:11:37.365Z,5.53
2018-05-08T19:14:05.869Z,6.10
2018-05-08T19:16:34.167Z,5.30
2018-05-08T19:19:08.932Z,6.10
2018-05-08T19:21:37.986Z,5.77
2018-05-08T19:24:12.567Z,5.20
2018-05-08T19:26:41.726Z,6.20
2018-05-08T19:29:16.469Z,6.93
2018-05-08T19:31:45.489Z,8.30
2018-05-08T19:34:14.341Z,8.93
2018-05-08T19:36:48.359Z,7.37
2018-05-08T19:39:16.621Z,7.50
2018-05-08T19:41:44.849Z,6.33
2018-05-08T19:44:12.916Z,6.00
2018-05-08T19:46:40.938Z,7.00
2018-05-08T19:49:09.019Z,7.50
2018-05-08T19:51:36.959Z,7.27
2018-05-08T19:54:04.999Z,7.10
2018-05-08T19:56:32.955Z,7.00
2018-05-08T19:59:01.059Z,7.17
2018-05-08T20:01:29.055Z,6.37
2018-05-08T20:03:57.050Z,6.03
2018-05-08T20:06:25.108Z,7.07
2018-05-08T20:08:53.157Z,6.83
2018-05-08T20:11:21.140Z,5.97
2018-05-08T20:13:49.170Z,5.80
2018-05-08T20:16:17.278Z,5.90
2018-05-08T20:18:45.285Z,5.50
2018-05-08T20:21:13.312Z,5.70
2018-05-08T20:23:41.366Z,5.10
2018-05-08T20:26:09.435Z,4.43
2018-05-08T20:28:37.539Z,5.50
2018-05-08T20:31:05.609Z,6.30
2018-05-08T20:33:33.609Z,5.07
2018-05-08T20:36:01.727Z,4.73
2018-05-08T20:38:29.706Z,5.43
2018-05-08T20:40:57.677Z,5.17
2018-05-08T20:43:25.666Z,5.80
2018-05-08T20:45:53.764Z,5.30
2018-05-08T20:48:21.795Z,5.40
2018-05-08T20:50:49.814Z,5.37
2018-05-08T20:53:17.897Z,6.10
2018-05-08T20:55:45.907Z,5.37
2018-05-08T20:58:13.913Z,4.97
2018-05-08T21:00:41.960Z,5.40
2018-05-08T21:03:09.925Z,4.90
2018-05-08T21:05:37.921Z,4.97
2018-05-08T21:08:05.939Z,4.97
2018-05-08T21:10:33.925Z,5.27
2018-05-08T21:13:01.874Z,4.80
2018-05-08T21:15:29.851Z,4.90
2018-05-08T21:17:58.376Z,5.10
2018-05-08T21:20:26.431Z,5.50
2018-05-08T21:22:54.485Z,5.10
2018-05-08T21:25:22.513Z,4.70
2018-05-08T21:27:56.049Z,5.17
2018-05-08T21:30:29.767Z,5.53
2018-05-08T21:32:57.934Z,4.30
2018-05-08T21:35:25.917Z,5.60
2018-05-08T21:37:53.882Z,6.17
2018-05-08T21:40:21.913Z,4.97
2018-05-08T21:42:49.899Z,4.80
2018-05-08T21:45:17.934Z,4.90
2018-05-08T21:47:45.948Z,4.00
2018-05-08T21:50:13.953Z,5.23
2018-05-08T21:52:41.983Z,5.70
2018-05-08T21:55:10.024Z,5.67
2018-05-08T21:57:38.036Z,6.10
2018-05-08T22:00:06.127Z,5.70
2018-05-08T22:02:34.175Z,5.33
2018-05-08T22:05:02.200Z,5.23
2018-05-08T22:07:30.215Z,5.60
2018-05-08T22:09:58.297Z,4.87
2018-05-08T22:12:26.329Z,5.70
2018-05-08T22:14:54.291Z,5.50
2018-05-08T22:17:22.256Z,4.97
2018-05-08T22:19:50.510Z,4.57
2018-05-08T22:22:18.492Z,5.47
2018-05-08T22:24:46.531Z,5.23
2018-05-08T22:27:14.513Z,4.83
2018-05-08T22:29:42.571Z,5.10
2018-05-08T22:32:10.625Z,5.20
2018-05-08T22:34:38.602Z,5.10
2018-05-08T22:37:06.570Z,5.60
2018-05-08T22:39:34.623Z,5.63
2018-05-08T22:42:02.620Z,6.30
2018-05-08T22:44:30.626Z,5.33
2018-05-08T22:46:58.611Z,5.80
2018-05-08T22:49:26.577Z,4.13
2018-05-08T22:51:54.607Z,4.80
2018-05-08T22:54:22.632Z,5.37
2018-05-08T22:56:50.647Z,5.30
2018-05-08T22:59:18.730Z,6.53
2018-05-08T23:01:46.727Z,6.13
2018-05-08T23:04:14.704Z,5.47
2018-05-08T23:06:42.694Z,5.63
2018-05-08T23:09:10.765Z,5.70
2018-05-08T23:11:38.781Z,5.60
2018-05-08T23:14:06.805Z,6.17
2018-05-08T23:16:34.814Z,5.80
2018-05-08T23:19:02.778Z,6.00
2018-05-08T23:21:31.295Z,5.30
2018-05-08T23:23:59.267Z,7.57
2018-05-08T23:26:27.285Z,5.60
2018-05-08T23:28:55.282Z,6.10
2018-05-08T23:31:23.337Z,5.83
2018-05-08T23:33:51.301Z,6.60
2018-05-08T23:36:19.299Z,6.70
2018-05-08T23:38:47.294Z,5.30
2018-05-08T23:41:15.290Z,5.10
2018-05-08T23:43:43.221Z,5.03
2018-05-08T23:46:11.235Z,5.43
2018-05-08T23:48:39.221Z,4.70
2018-05-08T23:51:07.258Z,6.80
2018-05-08T23:53:35.290Z,5.43
2018-05-08T23:56:03.283Z,5.53
2018-05-08T23:58:31.278Z,6.30
